sensor_id;sensor_type;location;lat;lon;timestamp;P1;durP1;ratioP1;P2;durP2;ratioP2
79178;SDS011;68608;49.904;16.436;2023-09-19T00:00:19;3.88;;;2.20;;
79178;SDS011;68608;49.904;16.436;2023-09-19T00:02:52;3.33;;;2.60;;
79178;SDS011;68608;49.904;16.436;2023-09-19T00:05:19;3.70;;;1.80;;
79178;SDS011;68608;49.904;16.436;2023-09-19T00:07:49;4.20;;;2.72;;
79178;SDS011;68608;49.904;16.436;2023-09-19T00:10:16;3.15;;;2.40;;
79178;SDS011;68608;49.904;16.436;2023-09-19T00:12:42;4.15;;;2.00;;
79178;SDS011;68608;49.904;16.436;2023-09-19T00:15:09;2.85;;;2.53;;
79178;SDS011;68608;49.904;16.436;2023-09-19T00:17:36;2.55;;;2.33;;
79178;SDS011;68608;49.904;16.436;2023-09-19T00:20:03;2.45;;;2.10;;
79178;SDS011;68608;49.904;16.436;2023-09-19T00:22:40;2.15;;;1.95;;
79178;SDS011;68608;49.904;16.436;2023-09-19T00:25:07;3.28;;;2.00;;
79178;SDS011;68608;49.904;16.436;2023-09-19T00:27:35;2.30;;;2.10;;
79178;SDS011;68608;49.904;16.436;2023-09-19T00:30:06;2.35;;;2.10;;
79178;SDS011;68608;49.904;16.436;2023-09-19T00:32:34;3.10;;;1.95;;
79178;SDS011;68608;49.904;16.436;2023-09-19T00:35:02;2.40;;;1.88;;
79178;SDS011;68608;49.904;16.436;2023-09-19T00:37:28;2.60;;;1.90;;
79178;SDS011;68608;49.904;16.436;2023-09-19T00:39:57;3.60;;;1.92;;
79178;SDS011;68608;49.904;16.436;2023-09-19T00:42:23;1.95;;;1.70;;
79178;SDS011;68608;49.904;16.436;2023-09-19T00:44:51;2.15;;;1.92;;
79178;SDS011;68608;49.904;16.436;2023-09-19T00:47:17;1.42;;;1.33;;
79178;SDS011;68608;49.904;16.436;2023-09-19T00:49:44;2.58;;;1.60;;
79178;SDS011;68608;49.904;16.436;2023-09-19T00:52:16;2.55;;;1.48;;
79178;SDS011;68608;49.904;16.436;2023-09-19T00:54:46;2.40;;;1.60;;
79178;SDS011;68608;49.904;16.436;2023-09-19T00:57:12;2.22;;;1.67;;
79178;SDS011;68608;49.904;16.436;2023-09-19T00:59:40;2.40;;;1.20;;
79178;SDS011;68608;49.904;16.436;2023-09-19T01:02:06;2.45;;;1.35;;
79178;SDS011;68608;49.904;16.436;2023-09-19T01:04:33;3.17;;;1.48;;
79178;SDS011;68608;49.904;16.436;2023-09-19T01:07:02;3.28;;;1.60;;
79178;SDS011;68608;49.904;16.436;2023-09-19T01:09:28;2.45;;;1.60;;
79178;SDS011;68608;49.904;16.436;2023-09-19T01:12:00;1.30;;;1.20;;
79178;SDS011;68608;49.904;16.436;2023-09-19T01:14:49;1.45;;;1.35;;
79178;SDS011;68608;49.904;16.436;2023-09-19T01:30:51;2.10;;;1.55;;
79178;SDS011;68608;49.904;16.436;2023-09-19T01:33:19;1.75;;;1.20;;
79178;SDS011;68608;49.904;16.436;2023-09-19T01:35:45;1.33;;;1.23;;
79178;SDS011;68608;49.904;16.436;2023-09-19T01:38:12;3.13;;;1.42;;
79178;SDS011;68608;49.904;16.436;2023-09-19T01:40:46;1.48;;;1.23;;
79178;SDS011;68608;49.904;16.436;2023-09-19T01:43:21;1.35;;;1.17;;
79178;SDS011;68608;49.904;16.436;2023-09-19T01:45:52;1.73;;;1.40;;
79178;SDS011;68608;49.904;16.436;2023-09-19T01:50:59;1.67;;;1.23;;
79178;SDS011;68608;49.904;16.436;2023-09-19T01:53:43;1.58;;;1.30;;
79178;SDS011;68608;49.904;16.436;2023-09-19T01:56:12;1.85;;;1.27;;
79178;SDS011;68608;49.904;16.436;2023-09-19T01:58:45;2.78;;;1.23;;
79178;SDS011;68608;49.904;16.436;2023-09-19T02:01:19;2.97;;;1.35;;
79178;SDS011;68608;49.904;16.436;2023-09-19T02:03:46;1.27;;;0.93;;
79178;SDS011;68608;49.904;16.436;2023-09-19T02:06:14;1.67;;;1.05;;
79178;SDS011;68608;49.904;16.436;2023-09-19T02:08:41;1.30;;;1.15;;
79178;SDS011;68608;49.904;16.436;2023-09-19T02:11:07;1.35;;;1.15;;
79178;SDS011;68608;49.904;16.436;2023-09-19T02:13:33;2.45;;;1.13;;
79178;SDS011;68608;49.904;16.436;2023-09-19T02:16:01;2.97;;;1.20;;
79178;SDS011;68608;49.904;16.436;2023-09-19T02:18:29;1.90;;;1.10;;
79178;SDS011;68608;49.904;16.436;2023-09-19T02:20:55;3.00;;;0.95;;
79178;SDS011;68608;49.904;16.436;2023-09-19T02:23:23;1.55;;;1.20;;
79178;SDS011;68608;49.904;16.436;2023-09-19T02:25:54;1.52;;;1.10;;
79178;SDS011;68608;49.904;16.436;2023-09-19T02:28:20;1.80;;;1.13;;
79178;SDS011;68608;49.904;16.436;2023-09-19T02:30:47;1.42;;;0.90;;
79178;SDS011;68608;49.904;16.436;2023-09-19T02:33:14;2.58;;;1.30;;
79178;SDS011;68608;49.904;16.436;2023-09-19T02:35:40;3.72;;;1.30;;
79178;SDS011;68608;49.904;16.436;2023-09-19T02:38:07;1.67;;;1.10;;
79178;SDS011;68608;49.904;16.436;2023-09-19T02:40:36;1.88;;;1.40;;
79178;SDS011;68608;49.904;16.436;2023-09-19T02:43:02;2.70;;;1.38;;
79178;SDS011;68608;49.904;16.436;2023-09-19T02:45:29;1.58;;;1.48;;
79178;SDS011;68608;49.904;16.436;2023-09-19T02:48:03;1.80;;;1.08;;
79178;SDS011;68608;49.904;16.436;2023-09-19T02:50:29;3.08;;;1.27;;
79178;SDS011;68608;49.904;16.436;2023-09-19T02:52:56;2.55;;;1.20;;
79178;SDS011;68608;49.904;16.436;2023-09-19T02:55:22;1.45;;;1.13;;
79178;SDS011;68608;49.904;16.436;2023-09-19T02:57:48;1.17;;;1.08;;
79178;SDS011;68608;49.904;16.436;2023-09-19T03:00:16;1.13;;;1.02;;
79178;SDS011;68608;49.904;16.436;2023-09-19T03:02:50;1.85;;;1.38;;
79178;SDS011;68608;49.904;16.436;2023-09-19T03:05:16;1.90;;;1.30;;
79178;SDS011;68608;49.904;16.436;2023-09-19T03:07:43;1.80;;;1.52;;
79178;SDS011;68608;49.904;16.436;2023-09-19T03:10:11;1.45;;;1.15;;
79178;SDS011;68608;49.904;16.436;2023-09-19T03:12:37;2.88;;;1.50;;
79178;SDS011;68608;49.904;16.436;2023-09-19T03:15:05;1.23;;;1.08;;
79178;SDS011;68608;49.904;16.436;2023-09-19T03:17:33;1.58;;;1.48;;
79178;SDS011;68608;49.904;16.436;2023-09-19T03:19:59;1.40;;;1.10;;
79178;SDS011;68608;49.904;16.436;2023-09-19T03:22:26;2.05;;;1.10;;
79178;SDS011;68608;49.904;16.436;2023-09-19T03:24:52;1.42;;;1.27;;
79178;SDS011;68608;49.904;16.436;2023-09-19T03:27:18;1.70;;;1.60;;
79178;SDS011;68608;49.904;16.436;2023-09-19T03:29:45;1.75;;;1.65;;
79178;SDS011;68608;49.904;16.436;2023-09-19T03:32:11;2.08;;;1.10;;
79178;SDS011;68608;49.904;16.436;2023-09-19T03:34:38;1.20;;;1.10;;
79178;SDS011;68608;49.904;16.436;2023-09-19T03:37:11;1.75;;;1.20;;
79178;SDS011;68608;49.904;16.436;2023-09-19T03:39:37;3.50;;;1.05;;
79178;SDS011;68608;49.904;16.436;2023-09-19T03:42:04;1.30;;;1.20;;
79178;SDS011;68608;49.904;16.436;2023-09-19T03:44:32;1.63;;;1.52;;
79178;SDS011;68608;49.904;16.436;2023-09-19T03:46:58;3.78;;;1.67;;
79178;SDS011;68608;49.904;16.436;2023-09-19T03:49:24;1.23;;;1.13;;
79178;SDS011;68608;49.904;16.436;2023-09-19T03:51:50;1.38;;;1.13;;
79178;SDS011;68608;49.904;16.436;2023-09-19T03:54:16;2.47;;;1.58;;
79178;SDS011;68608;49.904;16.436;2023-09-19T03:56:44;1.17;;;0.90;;
79178;SDS011;68608;49.904;16.436;2023-09-19T03:59:13;1.30;;;1.20;;
79178;SDS011;68608;49.904;16.436;2023-09-19T04:01:39;1.25;;;0.90;;
79178;SDS011;68608;49.904;16.436;2023-09-19T04:04:06;1.67;;;1.20;;
79178;SDS011;68608;49.904;16.436;2023-09-19T04:06:37;1.40;;;1.23;;
79178;SDS011;68608;49.904;16.436;2023-09-19T04:09:03;1.40;;;1.30;;
79178;SDS011;68608;49.904;16.436;2023-09-19T04:11:32;2.53;;;1.40;;
79178;SDS011;68608;49.904;16.436;2023-09-19T04:13:58;4.40;;;1.20;;
79178;SDS011;68608;49.904;16.436;2023-09-19T04:16:25;1.40;;;1.20;;
79178;SDS011;68608;49.904;16.436;2023-09-19T04:18:51;1.30;;;1.20;;
79178;SDS011;68608;49.904;16.436;2023-09-19T04:21:17;2.38;;;1.30;;
79178;SDS011;68608;49.904;16.436;2023-09-19T04:23:44;1.13;;;0.98;;
79178;SDS011;68608;49.904;16.436;2023-09-19T04:26:13;1.58;;;1.20;;
79178;SDS011;68608;49.904;16.436;2023-09-19T04:28:43;1.20;;;1.10;;
79178;SDS011;68608;49.904;16.436;2023-09-19T04:31:11;1.00;;;0.90;;
79178;SDS011;68608;49.904;16.436;2023-09-19T04:33:37;1.55;;;1.45;;
79178;SDS011;68608;49.904;16.436;2023-09-19T04:36:06;0.93;;;0.93;;
79178;SDS011;68608;49.904;16.436;2023-09-19T04:38:32;1.42;;;1.33;;
79178;SDS011;68608;49.904;16.436;2023-09-19T04:40:59;1.63;;;1.23;;
79178;SDS011;68608;49.904;16.436;2023-09-19T04:43:27;1.60;;;1.30;;
79178;SDS011;68608;49.904;16.436;2023-09-19T04:45:55;0.82;;;0.82;;
79178;SDS011;68608;49.904;16.436;2023-09-19T04:48:34;1.40;;;1.30;;
79178;SDS011;68608;49.904;16.436;2023-09-19T04:51:00;2.00;;;1.50;;
79178;SDS011;68608;49.904;16.436;2023-09-19T04:56:30;3.28;;;1.20;;
79178;SDS011;68608;49.904;16.436;2023-09-19T04:58:59;1.77;;;0.82;;
79178;SDS011;68608;49.904;16.436;2023-09-19T05:01:25;1.95;;;0.88;;
79178;SDS011;68608;49.904;16.436;2023-09-19T05:03:52;1.10;;;0.98;;
79178;SDS011;68608;49.904;16.436;2023-09-19T05:06:21;1.45;;;1.23;;
79178;SDS011;68608;49.904;16.436;2023-09-19T05:08:47;1.30;;;1.00;;
79178;SDS011;68608;49.904;16.436;2023-09-19T05:11:18;1.33;;;0.90;;
79178;SDS011;68608;49.904;16.436;2023-09-19T05:13:44;1.98;;;1.30;;
79178;SDS011;68608;49.904;16.436;2023-09-19T05:16:14;1.02;;;0.63;;
79178;SDS011;68608;49.904;16.436;2023-09-19T05:18:40;0.73;;;0.70;;
79178;SDS011;68608;49.904;16.436;2023-09-19T05:21:09;1.33;;;0.80;;
79178;SDS011;68608;49.904;16.436;2023-09-19T05:23:37;1.08;;;0.88;;
79178;SDS011;68608;49.904;16.436;2023-09-19T05:26:03;1.90;;;1.00;;
79178;SDS011;68608;49.904;16.436;2023-09-19T05:28:30;3.53;;;1.02;;
79178;SDS011;68608;49.904;16.436;2023-09-19T05:30:59;1.30;;;1.20;;
79178;SDS011;68608;49.904;16.436;2023-09-19T05:33:26;1.77;;;1.10;;
79178;SDS011;68608;49.904;16.436;2023-09-19T05:35:52;1.90;;;1.08;;
79178;SDS011;68608;49.904;16.436;2023-09-19T05:38:19;1.20;;;1.10;;
79178;SDS011;68608;49.904;16.436;2023-09-19T05:40:45;8.13;;;4.82;;
79178;SDS011;68608;49.904;16.436;2023-09-19T05:43:11;6.82;;;5.95;;
79178;SDS011;68608;49.904;16.436;2023-09-19T05:45:39;2.45;;;2.25;;
79178;SDS011;68608;49.904;16.436;2023-09-19T05:48:09;3.13;;;1.48;;
79178;SDS011;68608;49.904;16.436;2023-09-19T05:50:36;2.53;;;1.00;;
79178;SDS011;68608;49.904;16.436;2023-09-19T05:53:02;1.30;;;1.17;;
79178;SDS011;68608;49.904;16.436;2023-09-19T05:55:29;1.52;;;1.17;;
79178;SDS011;68608;49.904;16.436;2023-09-19T05:57:55;1.35;;;1.00;;
79178;SDS011;68608;49.904;16.436;2023-09-19T06:00:22;1.30;;;1.17;;
79178;SDS011;68608;49.904;16.436;2023-09-19T06:02:52;2.13;;;1.20;;
79178;SDS011;68608;49.904;16.436;2023-09-19T06:05:18;0.95;;;0.90;;
79178;SDS011;68608;49.904;16.436;2023-09-19T06:07:45;1.58;;;1.20;;
79178;SDS011;68608;49.904;16.436;2023-09-19T06:10:12;0.80;;;0.80;;
79178;SDS011;68608;49.904;16.436;2023-09-19T06:12:41;0.88;;;0.88;;
79178;SDS011;68608;49.904;16.436;2023-09-19T06:15:12;1.20;;;1.10;;
79178;SDS011;68608;49.904;16.436;2023-09-19T06:17:52;1.20;;;0.82;;
79178;SDS011;68608;49.904;16.436;2023-09-19T06:20:21;1.23;;;0.95;;
79178;SDS011;68608;49.904;16.436;2023-09-19T06:22:49;1.33;;;1.00;;
79178;SDS011;68608;49.904;16.436;2023-09-19T06:25:15;1.83;;;0.93;;
79178;SDS011;68608;49.904;16.436;2023-09-19T06:27:44;1.20;;;0.82;;
79178;SDS011;68608;49.904;16.436;2023-09-19T06:30:11;1.23;;;1.00;;
79178;SDS011;68608;49.904;16.436;2023-09-19T06:32:38;1.00;;;0.75;;
79178;SDS011;68608;49.904;16.436;2023-09-19T06:35:04;1.77;;;0.90;;
79178;SDS011;68608;49.904;16.436;2023-09-19T06:37:36;1.13;;;0.98;;
79178;SDS011;68608;49.904;16.436;2023-09-19T06:40:05;1.10;;;1.00;;
79178;SDS011;68608;49.904;16.436;2023-09-19T06:42:31;3.13;;;1.10;;
79178;SDS011;68608;49.904;16.436;2023-09-19T06:44:57;1.08;;;0.98;;
79178;SDS011;68608;49.904;16.436;2023-09-19T06:47:23;2.67;;;1.67;;
79178;SDS011;68608;49.904;16.436;2023-09-19T06:49:51;2.25;;;1.38;;
79178;SDS011;68608;49.904;16.436;2023-09-19T06:52:17;1.38;;;1.20;;
79178;SDS011;68608;49.904;16.436;2023-09-19T06:54:46;2.33;;;1.27;;
79178;SDS011;68608;49.904;16.436;2023-09-19T06:57:15;1.85;;;1.42;;
79178;SDS011;68608;49.904;16.436;2023-09-19T06:59:42;1.88;;;0.90;;
79178;SDS011;68608;49.904;16.436;2023-09-19T07:02:09;2.40;;;1.23;;
79178;SDS011;68608;49.904;16.436;2023-09-19T07:04:35;1.45;;;1.30;;
79178;SDS011;68608;49.904;16.436;2023-09-19T07:07:01;2.80;;;1.10;;
79178;SDS011;68608;49.904;16.436;2023-09-19T07:09:27;1.45;;;1.25;;
79178;SDS011;68608;49.904;16.436;2023-09-19T07:11:53;1.95;;;1.40;;
79178;SDS011;68608;49.904;16.436;2023-09-19T07:14:20;6.00;;;1.25;;
79178;SDS011;68608;49.904;16.436;2023-09-19T07:16:46;1.33;;;1.10;;
79178;SDS011;68608;49.904;16.436;2023-09-19T07:19:15;1.40;;;1.27;;
79178;SDS011;68608;49.904;16.436;2023-09-19T07:21:41;2.20;;;1.30;;
79178;SDS011;68608;49.904;16.436;2023-09-19T07:24:12;2.35;;;1.13;;
79178;SDS011;68608;49.904;16.436;2023-09-19T07:26:38;1.55;;;1.10;;
79178;SDS011;68608;49.904;16.436;2023-09-19T07:29:05;1.52;;;1.40;;
79178;SDS011;68608;49.904;16.436;2023-09-19T07:31:31;0.90;;;0.90;;
79178;SDS011;68608;49.904;16.436;2023-09-19T07:33:58;1.58;;;1.40;;
79178;SDS011;68608;49.904;16.436;2023-09-19T07:36:24;1.80;;;1.40;;
79178;SDS011;68608;49.904;16.436;2023-09-19T07:38:50;1.90;;;1.38;;
79178;SDS011;68608;49.904;16.436;2023-09-19T07:41:16;4.03;;;1.70;;
79178;SDS011;68608;49.904;16.436;2023-09-19T07:43:42;2.22;;;1.40;;
79178;SDS011;68608;49.904;16.436;2023-09-19T07:46:09;3.30;;;1.60;;
79178;SDS011;68608;49.904;16.436;2023-09-19T07:48:36;1.65;;;1.55;;
79178;SDS011;68608;49.904;16.436;2023-09-19T07:51:06;2.25;;;1.67;;
79178;SDS011;68608;49.904;16.436;2023-09-19T07:53:33;1.95;;;1.58;;
79178;SDS011;68608;49.904;16.436;2023-09-19T07:56:05;1.98;;;1.50;;
79178;SDS011;68608;49.904;16.436;2023-09-19T07:58:32;1.63;;;1.23;;
79178;SDS011;68608;49.904;16.436;2023-09-19T08:01:07;3.00;;;1.50;;
79178;SDS011;68608;49.904;16.436;2023-09-19T08:03:35;1.60;;;1.50;;
79178;SDS011;68608;49.904;16.436;2023-09-19T08:06:06;1.63;;;1.40;;
79178;SDS011;68608;49.904;16.436;2023-09-19T08:08:33;1.95;;;1.63;;
79178;SDS011;68608;49.904;16.436;2023-09-19T08:11:05;2.75;;;1.80;;
79178;SDS011;68608;49.904;16.436;2023-09-19T08:13:41;2.08;;;1.60;;
79178;SDS011;68608;49.904;16.436;2023-09-19T08:16:10;2.20;;;1.95;;
79178;SDS011;68608;49.904;16.436;2023-09-19T08:18:37;1.83;;;1.73;;
79178;SDS011;68608;49.904;16.436;2023-09-19T08:21:06;2.40;;;1.90;;
79178;SDS011;68608;49.904;16.436;2023-09-19T08:23:36;2.63;;;2.38;;
79178;SDS011;68608;49.904;16.436;2023-09-19T08:26:03;2.25;;;2.05;;
79178;SDS011;68608;49.904;16.436;2023-09-19T08:28:33;2.38;;;2.05;;
79178;SDS011;68608;49.904;16.436;2023-09-19T08:31:02;3.47;;;2.10;;
79178;SDS011;68608;49.904;16.436;2023-09-19T08:33:30;2.20;;;1.80;;
79178;SDS011;68608;49.904;16.436;2023-09-19T08:35:57;2.25;;;1.75;;
79178;SDS011;68608;49.904;16.436;2023-09-19T08:38:23;2.20;;;2.00;;
79178;SDS011;68608;49.904;16.436;2023-09-19T08:40:50;1.83;;;1.60;;
79178;SDS011;68608;49.904;16.436;2023-09-19T08:43:20;1.90;;;1.80;;
79178;SDS011;68608;49.904;16.436;2023-09-19T08:45:47;1.90;;;1.80;;
79178;SDS011;68608;49.904;16.436;2023-09-19T08:50:52;1.70;;;1.60;;
79178;SDS011;68608;49.904;16.436;2023-09-19T08:53:26;2.45;;;1.83;;
79178;SDS011;68608;49.904;16.436;2023-09-19T08:55:57;2.30;;;1.90;;
79178;SDS011;68608;49.904;16.436;2023-09-19T08:58:27;3.00;;;1.60;;
79178;SDS011;68608;49.904;16.436;2023-09-19T09:00:56;3.38;;;1.95;;
79178;SDS011;68608;49.904;16.436;2023-09-19T09:03:23;2.38;;;2.17;;
79178;SDS011;68608;49.904;16.436;2023-09-19T09:05:51;2.95;;;1.90;;
79178;SDS011;68608;49.904;16.436;2023-09-19T09:08:17;3.35;;;1.92;;
79178;SDS011;68608;49.904;16.436;2023-09-19T09:10:45;2.38;;;2.17;;
79178;SDS011;68608;49.904;16.436;2023-09-19T09:13:11;2.75;;;1.90;;
79178;SDS011;68608;49.904;16.436;2023-09-19T09:15:39;1.73;;;1.63;;
79178;SDS011;68608;49.904;16.436;2023-09-19T09:18:06;2.10;;;1.65;;
79178;SDS011;68608;49.904;16.436;2023-09-19T09:20:32;2.85;;;1.90;;
79178;SDS011;68608;49.904;16.436;2023-09-19T09:22:58;3.67;;;1.77;;
79178;SDS011;68608;49.904;16.436;2023-09-19T09:28:18;2.17;;;1.23;;
79178;SDS011;68608;49.904;16.436;2023-09-19T09:30:45;2.53;;;1.40;;
79178;SDS011;68608;49.904;16.436;2023-09-19T09:33:11;2.53;;;1.70;;
79178;SDS011;68608;49.904;16.436;2023-09-19T09:35:50;2.47;;;1.77;;
79178;SDS011;68608;49.904;16.436;2023-09-19T09:38:17;3.00;;;1.67;;
79178;SDS011;68608;49.904;16.436;2023-09-19T09:40:50;2.40;;;1.40;;
79178;SDS011;68608;49.904;16.436;2023-09-19T09:49:22;2.63;;;1.70;;
79178;SDS011;68608;49.904;16.436;2023-09-19T09:54:30;4.30;;;1.70;;
79178;SDS011;68608;49.904;16.436;2023-09-19T09:57:10;1.52;;;1.38;;
79178;SDS011;68608;49.904;16.436;2023-09-19T09:59:51;2.38;;;1.73;;
79178;SDS011;68608;49.904;16.436;2023-09-19T10:02:29;2.13;;;1.60;;
79178;SDS011;68608;49.904;16.436;2023-09-19T10:05:10;2.22;;;1.63;;
79178;SDS011;68608;49.904;16.436;2023-09-19T10:07:55;2.65;;;1.75;;
79178;SDS011;68608;49.904;16.436;2023-09-19T10:10:30;2.72;;;1.65;;
79178;SDS011;68608;49.904;16.436;2023-09-19T10:13:12;1.40;;;1.10;;
79178;SDS011;68608;49.904;16.436;2023-09-19T10:15:42;2.60;;;1.20;;
79178;SDS011;68608;49.904;16.436;2023-09-19T10:18:14;1.73;;;1.33;;
79178;SDS011;68608;49.904;16.436;2023-09-19T10:20:43;2.70;;;1.50;;
79178;SDS011;68608;49.904;16.436;2023-09-19T10:23:11;1.60;;;1.40;;
79178;SDS011;68608;49.904;16.436;2023-09-19T10:25:45;2.30;;;1.40;;
79178;SDS011;68608;49.904;16.436;2023-09-19T10:28:13;2.08;;;1.17;;
79178;SDS011;68608;49.904;16.436;2023-09-19T10:30:49;2.05;;;1.50;;
79178;SDS011;68608;49.904;16.436;2023-09-19T10:33:19;2.47;;;1.40;;
79178;SDS011;68608;49.904;16.436;2023-09-19T10:35:46;1.23;;;1.05;;
79178;SDS011;68608;49.904;16.436;2023-09-19T10:38:13;1.55;;;1.10;;
79178;SDS011;68608;49.904;16.436;2023-09-19T10:40:40;2.33;;;1.17;;
79178;SDS011;68608;49.904;16.436;2023-09-19T10:43:11;1.23;;;1.10;;
79178;SDS011;68608;49.904;16.436;2023-09-19T10:45:38;3.97;;;1.55;;
79178;SDS011;68608;49.904;16.436;2023-09-19T10:48:04;0.90;;;0.85;;
79178;SDS011;68608;49.904;16.436;2023-09-19T10:50:36;1.33;;;1.20;;
79178;SDS011;68608;49.904;16.436;2023-09-19T10:53:07;2.25;;;1.20;;
79178;SDS011;68608;49.904;16.436;2023-09-19T10:55:35;1.83;;;1.20;;
79178;SDS011;68608;49.904;16.436;2023-09-19T10:58:02;2.45;;;1.52;;
79178;SDS011;68608;49.904;16.436;2023-09-19T11:00:55;4.63;;;2.30;;
79178;SDS011;68608;49.904;16.436;2023-09-19T11:03:21;2.97;;;2.08;;
79178;SDS011;68608;49.904;16.436;2023-09-19T11:09:15;3.13;;;1.30;;
79178;SDS011;68608;49.904;16.436;2023-09-19T11:20:32;2.90;;;1.70;;
79178;SDS011;68608;49.904;16.436;2023-09-19T11:23:07;2.55;;;1.75;;
79178;SDS011;68608;49.904;16.436;2023-09-19T11:30:33;1.38;;;1.27;;
79178;SDS011;68608;49.904;16.436;2023-09-19T11:33:16;1.92;;;1.70;;
79178;SDS011;68608;49.904;16.436;2023-09-19T11:43:51;1.35;;;1.25;;
79178;SDS011;68608;49.904;16.436;2023-09-19T11:46:19;2.03;;;1.15;;
79178;SDS011;68608;49.904;16.436;2023-09-19T11:48:49;1.58;;;1.08;;
79178;SDS011;68608;49.904;16.436;2023-09-19T11:51:16;2.40;;;1.38;;
79178;SDS011;68608;49.904;16.436;2023-09-19T11:53:51;1.38;;;1.27;;
79178;SDS011;68608;49.904;16.436;2023-09-19T11:56:18;1.40;;;1.30;;
79178;SDS011;68608;49.904;16.436;2023-09-19T11:58:46;1.30;;;1.13;;
79178;SDS011;68608;49.904;16.436;2023-09-19T12:01:14;2.05;;;1.13;;
79178;SDS011;68608;49.904;16.436;2023-09-19T12:03:45;3.28;;;1.50;;
79178;SDS011;68608;49.904;16.436;2023-09-19T12:06:13;3.60;;;1.75;;
79178;SDS011;68608;49.904;16.436;2023-09-19T12:08:40;1.40;;;1.30;;
79178;SDS011;68608;49.904;16.436;2023-09-19T12:11:08;1.13;;;1.05;;
79178;SDS011;68608;49.904;16.436;2023-09-19T12:13:41;1.83;;;1.20;;
79178;SDS011;68608;49.904;16.436;2023-09-19T12:16:11;3.33;;;1.00;;
79178;SDS011;68608;49.904;16.436;2023-09-19T12:18:40;0.60;;;0.60;;
79178;SDS011;68608;49.904;16.436;2023-09-19T12:21:08;1.55;;;1.35;;
79178;SDS011;68608;49.904;16.436;2023-09-19T12:23:37;2.00;;;1.90;;
79178;SDS011;68608;49.904;16.436;2023-09-19T12:26:06;1.48;;;1.38;;
79178;SDS011;68608;49.904;16.436;2023-09-19T12:28:40;1.38;;;1.23;;
79178;SDS011;68608;49.904;16.436;2023-09-19T12:31:07;1.08;;;1.05;;
79178;SDS011;68608;49.904;16.436;2023-09-19T12:33:33;0.80;;;0.80;;
79178;SDS011;68608;49.904;16.436;2023-09-19T12:36:00;1.25;;;1.00;;
79178;SDS011;68608;49.904;16.436;2023-09-19T12:38:28;1.52;;;0.98;;
79178;SDS011;68608;49.904;16.436;2023-09-19T12:40:58;1.65;;;0.90;;
79178;SDS011;68608;49.904;16.436;2023-09-19T12:43:25;3.22;;;0.95;;
79178;SDS011;68608;49.904;16.436;2023-09-19T12:45:52;1.40;;;1.30;;
79178;SDS011;68608;49.904;16.436;2023-09-19T12:53:45;1.23;;;1.02;;
79178;SDS011;68608;49.904;16.436;2023-09-19T12:56:15;1.95;;;1.05;;
79178;SDS011;68608;49.904;16.436;2023-09-19T12:58:52;1.55;;;1.42;;
79178;SDS011;68608;49.904;16.436;2023-09-19T13:01:19;2.88;;;1.27;;
79178;SDS011;68608;49.904;16.436;2023-09-19T13:03:45;1.23;;;0.98;;
79178;SDS011;68608;49.904;16.436;2023-09-19T13:06:12;1.45;;;1.00;;
79178;SDS011;68608;49.904;16.436;2023-09-19T13:08:39;1.40;;;1.10;;
79178;SDS011;68608;49.904;16.436;2023-09-19T13:13:38;1.70;;;1.42;;
79178;SDS011;68608;49.904;16.436;2023-09-19T13:16:04;2.65;;;1.85;;
79178;SDS011;68608;49.904;16.436;2023-09-19T13:18:50;1.73;;;1.50;;
79178;SDS011;68608;49.904;16.436;2023-09-19T13:21:20;2.10;;;1.90;;
79178;SDS011;68608;49.904;16.436;2023-09-19T13:23:53;1.58;;;1.30;;
79178;SDS011;68608;49.904;16.436;2023-09-19T13:26:27;1.40;;;1.30;;
79178;SDS011;68608;49.904;16.436;2023-09-19T13:28:53;1.80;;;1.02;;
79178;SDS011;68608;49.904;16.436;2023-09-19T13:31:20;1.98;;;1.35;;
79178;SDS011;68608;49.904;16.436;2023-09-19T13:33:47;1.42;;;1.13;;
79178;SDS011;68608;49.904;16.436;2023-09-19T13:36:15;2.58;;;1.42;;
79178;SDS011;68608;49.904;16.436;2023-09-19T13:38:43;2.75;;;1.35;;
79178;SDS011;68608;49.904;16.436;2023-09-19T13:41:10;1.52;;;1.20;;
79178;SDS011;68608;49.904;16.436;2023-09-19T13:43:36;1.38;;;1.05;;
79178;SDS011;68608;49.904;16.436;2023-09-19T13:46:04;1.23;;;1.05;;
79178;SDS011;68608;49.904;16.436;2023-09-19T13:48:30;1.40;;;1.30;;
79178;SDS011;68608;49.904;16.436;2023-09-19T13:50:56;1.83;;;1.45;;
79178;SDS011;68608;49.904;16.436;2023-09-19T13:53:22;1.35;;;1.25;;
79178;SDS011;68608;49.904;16.436;2023-09-19T13:55:48;1.10;;;1.00;;
79178;SDS011;68608;49.904;16.436;2023-09-19T13:58:14;1.42;;;0.80;;
79178;SDS011;68608;49.904;16.436;2023-09-19T14:00:41;1.48;;;1.17;;
79178;SDS011;68608;49.904;16.436;2023-09-19T14:03:07;1.40;;;1.00;;
79178;SDS011;68608;49.904;16.436;2023-09-19T14:05:35;1.08;;;1.00;;
79178;SDS011;68608;49.904;16.436;2023-09-19T14:08:02;3.70;;;1.13;;
79178;SDS011;68608;49.904;16.436;2023-09-19T14:10:29;1.00;;;0.90;;
79178;SDS011;68608;49.904;16.436;2023-09-19T14:12:57;0.93;;;0.77;;
79178;SDS011;68608;49.904;16.436;2023-09-19T14:15:24;2.05;;;0.95;;
79178;SDS011;68608;49.904;16.436;2023-09-19T14:17:55;2.83;;;1.17;;
79178;SDS011;68608;49.904;16.436;2023-09-19T14:20:21;3.97;;;1.48;;
79178;SDS011;68608;49.904;16.436;2023-09-19T14:22:48;2.03;;;1.00;;
79178;SDS011;68608;49.904;16.436;2023-09-19T14:25:14;3.40;;;1.05;;
79178;SDS011;68608;49.904;16.436;2023-09-19T14:27:40;1.10;;;1.00;;
79178;SDS011;68608;49.904;16.436;2023-09-19T14:30:07;1.60;;;1.50;;
79178;SDS011;68608;49.904;16.436;2023-09-19T14:32:34;1.70;;;1.48;;
79178;SDS011;68608;49.904;16.436;2023-09-19T14:35:01;1.85;;;1.52;;
79178;SDS011;68608;49.904;16.436;2023-09-19T14:37:27;2.30;;;1.02;;
79178;SDS011;68608;49.904;16.436;2023-09-19T14:39:53;0.75;;;0.73;;
79178;SDS011;68608;49.904;16.436;2023-09-19T14:42:19;1.63;;;1.35;;
79178;SDS011;68608;49.904;16.436;2023-09-19T14:44:46;1.42;;;1.25;;
79178;SDS011;68608;49.904;16.436;2023-09-19T14:47:15;1.92;;;0.98;;
79178;SDS011;68608;49.904;16.436;2023-09-19T14:49:42;1.40;;;1.30;;
79178;SDS011;68608;49.904;16.436;2023-09-19T14:52:08;1.40;;;1.30;;
79178;SDS011;68608;49.904;16.436;2023-09-19T14:54:35;3.33;;;1.38;;
79178;SDS011;68608;49.904;16.436;2023-09-19T14:57:03;1.42;;;1.13;;
79178;SDS011;68608;49.904;16.436;2023-09-19T14:59:32;1.23;;;1.13;;
79178;SDS011;68608;49.904;16.436;2023-09-19T15:02:02;1.20;;;0.93;;
79178;SDS011;68608;49.904;16.436;2023-09-19T15:04:28;1.40;;;1.30;;
79178;SDS011;68608;49.904;16.436;2023-09-19T15:06:54;1.48;;;1.38;;
79178;SDS011;68608;49.904;16.436;2023-09-19T15:09:21;1.30;;;1.20;;
79178;SDS011;68608;49.904;16.436;2023-09-19T15:11:51;1.05;;;1.02;;
79178;SDS011;68608;49.904;16.436;2023-09-19T15:14:17;1.98;;;1.13;;
79178;SDS011;68608;49.904;16.436;2023-09-19T15:16:43;1.85;;;1.30;;
79178;SDS011;68608;49.904;16.436;2023-09-19T15:19:09;1.10;;;0.90;;
79178;SDS011;68608;49.904;16.436;2023-09-19T15:21:36;7.45;;;1.20;;
79178;SDS011;68608;49.904;16.436;2023-09-19T15:24:05;2.00;;;1.33;;
79178;SDS011;68608;49.904;16.436;2023-09-19T15:26:34;1.75;;;1.20;;
79178;SDS011;68608;49.904;16.436;2023-09-19T15:29:04;1.25;;;1.00;;
79178;SDS011;68608;49.904;16.436;2023-09-19T15:31:30;1.17;;;1.15;;
79178;SDS011;68608;49.904;16.436;2023-09-19T15:33:57;1.30;;;1.20;;
79178;SDS011;68608;49.904;16.436;2023-09-19T15:36:23;1.77;;;1.10;;
79178;SDS011;68608;49.904;16.436;2023-09-19T15:41:29;1.40;;;1.20;;
79178;SDS011;68608;49.904;16.436;2023-09-19T15:43:56;1.35;;;1.25;;
79178;SDS011;68608;49.904;16.436;2023-09-19T15:46:22;1.42;;;1.33;;
79178;SDS011;68608;49.904;16.436;2023-09-19T15:48:48;1.35;;;1.25;;